YMENYMIA

Guest
Details From YMEN - Essendon
To YMIA - Mildura
Flight Number -
Tags generated
Created
Modified
Stats Distance 259 nm / 480 km
Max Altitude 24,400 ft / 7,437 m
Waypoints 5
Social Downloads 3
Likes 0
Share VATSIM

Download

Looking for another format? Having issues loading an existing format? Contact us
Advertisement - Login to hide

Notes

Basic altitude profile: - Ascent Rate: 1000ft/min - Ascent Speed: 110kts - Cruise Altitude: 7500ft - Cruise Speed: 165kts - Descent Rate: 1500ft/min - Descent Speed: 170kts Options: - Use NATs: yes - Use PACOTS: yes - Use low airways: yes - Use high airways: yes

Route

YMEN ML H164 KEPPA UH336 NYA YMIA

ID Type Via Altitude Latitude Longitude Leg Dist Tot Dist Heading (true) Name
O YMEN APT - 0 ft / 0 m -37.72869˚ 144.90240˚ - 0 nm - Essendon
ML VOR - 1,700 ft / 518 m -37.66000˚ 144.84194˚ 5 nm 5 nm 325° / 325° MELBOURNE VOR-DME
KEPPA FIX H164 (AWY-LO) 24,400 ft / 7,437 m -36.79667˚ 143.97583˚ 66 nm 71 nm 321° / 322° -
NYA VOR UH336 (AWY-HI) 18,000 ft / 5,486 m -34.96894˚ 143.23265˚ 115 nm 186 nm 342° / 342° NATYA VOR
O YMIA APT - 0 ft / 0 m -34.22949˚ 142.08634˚ 71 nm 258 nm 308° / 308° Mildura

Altitude Profile

Advertisement - Login to hide

Weather


0- 5 10 15 20 25 30 35+ Temperature / ° C

Clouds and Precipitation
Forecast for 2017-12-11 12:00 UTC. Updated 27 minutes ago

Ground ~20,000 ft ~40,000 ft Winds

YMEN

Details ICAO YMEN (MEB)
Name Essendon
Region Australia
Timezone Australia/Melbourne (UTC+11.0)
Stats Elevation 281 ft / 86 m (AMSL)
Location -37.728692° 144.902400°
Runways 2
Magnetic Variation 11.556° E

METAR

YMEN 110700Z AUTO 18014KT 9999 // NCD 19/12 Q1019

Decode

TAF

Not found

Departure Runways

ID Width Length Bearing (true) Bearing (mag) Surface Threshold Offset Overrun Length
08 164 ft / 50 m 6,293 ft / 1,918 m 88.02° 76.46° Asphalt 0 ft / 0 m 0 ft / 0 m
17 148 ft / 45 m 4,364 ft / 1,330 m 177.90° 166.34° Asphalt 0 ft / 0 m 0 ft / 0 m
26 164 ft / 50 m 6,293 ft / 1,918 m 268.01° 256.45° Asphalt 0 ft / 0 m 0 ft / 0 m
35 148 ft / 45 m 4,364 ft / 1,330 m 357.90° 346.34° Asphalt 0 ft / 0 m 863 ft / 263 m

YMIA

Details ICAO YMIA (MQL)
Name Mildura
Region Australia
Timezone Australia/Melbourne (UTC+11.0)
Stats Elevation 166 ft / 51 m (AMSL)
Location -34.229489° 142.086345°
Runways 2
Magnetic Variation 9.251° E

METAR

YMIA 110700Z AUTO 18008KT 130V230 9999 // NCD 33/03 Q1015

Decode

TAF

Not found

Destination Runways

ID Width Length Bearing (true) Bearing (mag) Surface Threshold Offset Overrun Length
09 148 ft / 45 m 5,990 ft / 1,826 m 101.71° 92.46° Asphalt 0 ft / 0 m 0 ft / 0 m
18 98 ft / 30 m 3,739 ft / 1,140 m 185.00° 175.75° Asphalt 0 ft / 0 m 0 ft / 0 m
27 148 ft / 45 m 5,990 ft / 1,826 m 281.69° 272.44° Asphalt 0 ft / 0 m 0 ft / 0 m
36 98 ft / 30 m 3,739 ft / 1,140 m 5.00° 355.75° Asphalt 0 ft / 0 m 0 ft / 0 m

Popular Alternatives